sensor_id;sensor_type;location;lat;lon;timestamp;pressure;altitude;pressure_sealevel;temperature;humidity
74895;BME280;63447;49.446;8.666;2022-10-22T00:02:08;100065.81;;;15.44;79.04
74895;BME280;63447;49.446;8.666;2022-10-22T00:04:40;100040.38;;;15.42;79.73
74895;BME280;63447;49.446;8.666;2022-10-22T00:07:05;100029.13;;;15.35;80.64
74895;BME280;63447;49.446;8.666;2022-10-22T00:09:30;100025.75;;;15.22;80.56
74895;BME280;63447;49.446;8.666;2022-10-22T00:12:01;100035.81;;;15.30;80.66
74895;BME280;63447;49.446;8.666;2022-10-22T00:14:26;100043.16;;;15.19;80.76
74895;BME280;63447;49.446;8.666;2022-10-22T00:16:53;100054.47;;;15.30;80.66
74895;BME280;63447;49.446;8.666;2022-10-22T00:19:20;100059.47;;;15.20;81.00
74895;BME280;63447;49.446;8.666;2022-10-22T00:21:45;100059.09;;;15.22;80.33
74895;BME280;63447;49.446;8.666;2022-10-22T00:24:11;100080.16;;;15.23;80.08
74895;BME280;63447;49.446;8.666;2022-10-22T00:26:36;100103.38;;;15.34;79.54
74895;BME280;63447;49.446;8.666;2022-10-22T00:29:06;100107.59;;;15.24;80.06
74895;BME280;63447;49.446;8.666;2022-10-22T00:31:32;100103.72;;;15.29;79.42
74895;BME280;63447;49.446;8.666;2022-10-22T00:34:00;100108.91;;;15.31;79.12
74895;BME280;63447;49.446;8.666;2022-10-22T00:36:29;100121.06;;;15.22;80.00
74895;BME280;63447;49.446;8.666;2022-10-22T00:38:54;100123.03;;;15.22;79.45
74895;BME280;63447;49.446;8.666;2022-10-22T00:41:22;100125.75;;;15.18;80.04
74895;BME280;63447;49.446;8.666;2022-10-22T00:44:02;100120.03;;;15.31;79.88
74895;BME280;63447;49.446;8.666;2022-10-22T00:46:28;100122.53;;;15.16;80.34
74895;BME280;63447;49.446;8.666;2022-10-22T00:48:56;100118.31;;;15.03;80.82
74895;BME280;63447;49.446;8.666;2022-10-22T00:51:24;100121.53;;;15.05;80.58
74895;BME280;63447;49.446;8.666;2022-10-22T00:53:54;100116.38;;;15.07;80.88
74895;BME280;63447;49.446;8.666;2022-10-22T00:56:22;100094.13;;;15.04;80.67
74895;BME280;63447;49.446;8.666;2022-10-22T00:58:54;100100.03;;;15.02;80.97
74895;BME280;63447;49.446;8.666;2022-10-22T01:01:23;100116.72;;;15.02;81.01
74895;BME280;63447;49.446;8.666;2022-10-22T01:03:52;100105.91;;;14.97;80.23
74895;BME280;63447;49.446;8.666;2022-10-22T01:06:29;100124.00;;;15.10;80.16
74895;BME280;63447;49.446;8.666;2022-10-22T01:25:06;100112.31;;;15.01;79.98
74895;BME280;63447;49.446;8.666;2022-10-22T01:30:13;100100.03;;;14.83;79.81
74895;BME280;63447;49.446;8.666;2022-10-22T01:32:45;100130.81;;;14.93;79.88
74895;BME280;63447;49.446;8.666;2022-10-22T01:35:16;100136.47;;;14.97;80.00
74895;BME280;63447;49.446;8.666;2022-10-22T01:37:49;100132.34;;;14.91;80.64
74895;BME280;63447;49.446;8.666;2022-10-22T01:40:17;100133.75;;;14.81;80.44
74895;BME280;63447;49.446;8.666;2022-10-22T01:43:05;100125.00;;;14.79;80.60
74895;BME280;63447;49.446;8.666;2022-10-22T01:45:43;100147.84;;;14.92;80.01
74895;BME280;63447;49.446;8.666;2022-10-22T01:56:30;100130.25;;;14.84;80.44
74895;BME280;63447;49.446;8.666;2022-10-22T01:59:07;100123.03;;;14.80;80.28
74895;BME280;63447;49.446;8.666;2022-10-22T02:04:26;100129.16;;;14.70;81.03
74895;BME280;63447;49.446;8.666;2022-10-22T02:06:57;100136.75;;;14.73;81.11
74895;BME280;63447;49.446;8.666;2022-10-22T02:09:25;100130.63;;;14.64;80.42
74895;BME280;63447;49.446;8.666;2022-10-22T02:11:52;100120.22;;;14.60;80.63
74895;BME280;63447;49.446;8.666;2022-10-22T02:14:19;100142.31;;;14.92;79.88
74895;BME280;63447;49.446;8.666;2022-10-22T02:16:49;100129.53;;;14.68;80.28
74895;BME280;63447;49.446;8.666;2022-10-22T02:19:21;100124.84;;;14.72;80.72
74895;BME280;63447;49.446;8.666;2022-10-22T02:21:51;100107.97;;;14.62;80.59
74895;BME280;63447;49.446;8.666;2022-10-22T02:24:20;100109.50;;;14.59;80.95
74895;BME280;63447;49.446;8.666;2022-10-22T02:29:42;100108.03;;;14.65;81.07
74895;BME280;63447;49.446;8.666;2022-10-22T02:32:12;100108.03;;;14.65;81.41
74895;BME280;63447;49.446;8.666;2022-10-22T02:34:40;100100.94;;;14.68;81.63
74895;BME280;63447;49.446;8.666;2022-10-22T02:37:06;100088.09;;;14.59;81.58
74895;BME280;63447;49.446;8.666;2022-10-22T02:39:34;100082.97;;;14.62;81.81
74895;BME280;63447;49.446;8.666;2022-10-22T02:42:01;100073.31;;;14.55;81.44
74895;BME280;63447;49.446;8.666;2022-10-22T02:44:27;100055.50;;;14.56;82.10
74895;BME280;63447;49.446;8.666;2022-10-22T02:46:52;100061.84;;;14.57;81.86
74895;BME280;63447;49.446;8.666;2022-10-22T02:49:17;100065.31;;;14.50;82.32
74895;BME280;63447;49.446;8.666;2022-10-22T02:51:47;100057.28;;;14.45;82.86
74895;BME280;63447;49.446;8.666;2022-10-22T02:54:12;100067.75;;;14.36;82.61
74895;BME280;63447;49.446;8.666;2022-10-22T02:56:42;100066.56;;;14.37;82.85
74895;BME280;63447;49.446;8.666;2022-10-22T02:59:07;100068.63;;;14.40;82.81
74895;BME280;63447;49.446;8.666;2022-10-22T03:01:33;100074.09;;;14.37;83.26
74895;BME280;63447;49.446;8.666;2022-10-22T03:04:00;100083.59;;;14.36;83.10
74895;BME280;63447;49.446;8.666;2022-10-22T03:06:28;100069.28;;;14.34;83.37
74895;BME280;63447;49.446;8.666;2022-10-22T03:08:53;100062.84;;;14.30;83.98
74895;BME280;63447;49.446;8.666;2022-10-22T03:11:19;100047.78;;;14.31;83.27
74895;BME280;63447;49.446;8.666;2022-10-22T03:13:46;100047.00;;;14.30;83.16
74895;BME280;63447;49.446;8.666;2022-10-22T03:16:16;100043.00;;;14.27;83.17
74895;BME280;63447;49.446;8.666;2022-10-22T03:18:44;100063.06;;;14.40;83.08
74895;BME280;63447;49.446;8.666;2022-10-22T03:23:48;100033.72;;;14.20;83.41
74895;BME280;63447;49.446;8.666;2022-10-22T03:26:14;100039.56;;;14.34;83.43
74895;BME280;63447;49.446;8.666;2022-10-22T03:28:45;100039.09;;;14.32;83.04
74895;BME280;63447;49.446;8.666;2022-10-22T03:31:14;100035.25;;;14.17;82.62
74895;BME280;63447;49.446;8.666;2022-10-22T03:33:42;100043.94;;;14.35;81.78
74895;BME280;63447;49.446;8.666;2022-10-22T03:36:09;100044.28;;;14.34;82.07
74895;BME280;63447;49.446;8.666;2022-10-22T03:38:38;100029.06;;;14.24;81.26
74895;BME280;63447;49.446;8.666;2022-10-22T03:41:06;100076.06;;;14.36;81.81
74895;BME280;63447;49.446;8.666;2022-10-22T03:43:35;100089.38;;;14.27;81.77
74895;BME280;63447;49.446;8.666;2022-10-22T03:46:04;100113.19;;;14.28;81.69
74895;BME280;63447;49.446;8.666;2022-10-22T03:48:30;100133.09;;;14.34;80.98
74895;BME280;63447;49.446;8.666;2022-10-22T03:50:55;100131.59;;;14.36;81.07
74895;BME280;63447;49.446;8.666;2022-10-22T03:53:23;100156.66;;;14.40;80.59
74895;BME280;63447;49.446;8.666;2022-10-22T03:55:48;100158.91;;;14.34;81.21
74895;BME280;63447;49.446;8.666;2022-10-22T03:58:13;100172.41;;;14.36;81.26
74895;BME280;63447;49.446;8.666;2022-10-22T04:00:41;100185.41;;;14.47;81.10
74895;BME280;63447;49.446;8.666;2022-10-22T04:03:09;100167.53;;;14.29;82.14
74895;BME280;63447;49.446;8.666;2022-10-22T04:05:34;100150.53;;;14.15;81.72
74895;BME280;63447;49.446;8.666;2022-10-22T04:08:02;100177.03;;;14.28;82.36
74895;BME280;63447;49.446;8.666;2022-10-22T04:10:27;100188.19;;;14.32;81.88
74895;BME280;63447;49.446;8.666;2022-10-22T04:12:58;100167.28;;;14.18;82.18
74895;BME280;63447;49.446;8.666;2022-10-22T04:15:23;100167.81;;;14.08;83.33
74895;BME280;63447;49.446;8.666;2022-10-22T04:17:52;100163.19;;;13.97;83.23
74895;BME280;63447;49.446;8.666;2022-10-22T04:20:19;100176.16;;;13.92;83.54
74895;BME280;63447;49.446;8.666;2022-10-22T04:22:47;100202.56;;;13.86;84.22
74895;BME280;63447;49.446;8.666;2022-10-22T04:25:12;100193.34;;;13.82;83.47
74895;BME280;63447;49.446;8.666;2022-10-22T04:27:38;100198.72;;;13.75;84.17
74895;BME280;63447;49.446;8.666;2022-10-22T04:30:04;100209.06;;;13.78;84.48
74895;BME280;63447;49.446;8.666;2022-10-22T04:32:33;100203.38;;;13.71;84.89
74895;BME280;63447;49.446;8.666;2022-10-22T04:35:01;100211.84;;;13.63;84.68
74895;BME280;63447;49.446;8.666;2022-10-22T04:37:26;100208.81;;;13.68;84.38
74895;BME280;63447;49.446;8.666;2022-10-22T04:39:52;100225.72;;;13.63;84.80
74895;BME280;63447;49.446;8.666;2022-10-22T04:42:17;100218.72;;;13.53;85.49
74895;BME280;63447;49.446;8.666;2022-10-22T04:44:43;100205.13;;;13.48;85.37
74895;BME280;63447;49.446;8.666;2022-10-22T04:47:10;100226.69;;;13.54;85.15
74895;BME280;63447;49.446;8.666;2022-10-22T04:49:41;100222.38;;;13.57;85.45
74895;BME280;63447;49.446;8.666;2022-10-22T04:52:06;100231.50;;;13.57;85.55
74895;BME280;63447;49.446;8.666;2022-10-22T04:54:36;100220.25;;;13.50;85.36
74895;BME280;63447;49.446;8.666;2022-10-22T04:57:04;100228.75;;;13.57;85.00
74895;BME280;63447;49.446;8.666;2022-10-22T04:59:29;100145.75;;;13.05;85.44
74895;BME280;63447;49.446;8.666;2022-10-22T05:01:57;100203.44;;;13.43;85.14
74895;BME280;63447;49.446;8.666;2022-10-22T05:04:24;100240.72;;;13.62;85.09
74895;BME280;63447;49.446;8.666;2022-10-22T05:06:50;100230.19;;;13.67;84.84
74895;BME280;63447;49.446;8.666;2022-10-22T05:09:17;100252.94;;;13.73;84.78
74895;BME280;63447;49.446;8.666;2022-10-22T05:11:45;100241.56;;;13.78;84.68
74895;BME280;63447;49.446;8.666;2022-10-22T05:14:18;100234.41;;;13.77;84.39
74895;BME280;63447;49.446;8.666;2022-10-22T05:16:46;100243.50;;;13.77;84.47
74895;BME280;63447;49.446;8.666;2022-10-22T05:19:22;100245.88;;;13.75;84.23
74895;BME280;63447;49.446;8.666;2022-10-22T05:21:52;100253.03;;;13.76;84.40
74895;BME280;63447;49.446;8.666;2022-10-22T05:24:23;100250.97;;;13.73;84.69
74895;BME280;63447;49.446;8.666;2022-10-22T05:26:55;100258.19;;;13.78;84.45
74895;BME280;63447;49.446;8.666;2022-10-22T05:29:21;100250.97;;;13.73;84.63
74895;BME280;63447;49.446;8.666;2022-10-22T05:31:49;100261.50;;;13.83;84.40
74895;BME280;63447;49.446;8.666;2022-10-22T05:34:15;100260.97;;;13.78;84.47
74895;BME280;63447;49.446;8.666;2022-10-22T05:36:41;100254.91;;;13.72;84.88
74895;BME280;63447;49.446;8.666;2022-10-22T05:39:06;100262.94;;;13.77;84.31
74895;BME280;63447;49.446;8.666;2022-10-22T05:41:34;100260.09;;;13.89;83.86
74895;BME280;63447;49.446;8.666;2022-10-22T05:44:00;100267.41;;;13.82;84.63
74895;BME280;63447;49.446;8.666;2022-10-22T05:46:28;100261.59;;;13.87;83.78
74895;BME280;63447;49.446;8.666;2022-10-22T05:49:00;100283.91;;;13.90;84.03
74895;BME280;63447;49.446;8.666;2022-10-22T05:51:33;100268.47;;;13.77;84.36
74895;BME280;63447;49.446;8.666;2022-10-22T05:54:01;100283.69;;;13.83;84.38
74895;BME280;63447;49.446;8.666;2022-10-22T05:56:30;100288.34;;;13.79;85.15
74895;BME280;63447;49.446;8.666;2022-10-22T05:59:01;100295.94;;;13.82;84.97
74895;BME280;63447;49.446;8.666;2022-10-22T06:01:30;100294.63;;;13.76;85.34
74895;BME280;63447;49.446;8.666;2022-10-22T06:03:58;100281.91;;;13.75;84.85
74895;BME280;63447;49.446;8.666;2022-10-22T06:08:58;100297.22;;;13.85;84.65
74895;BME280;63447;49.446;8.666;2022-10-22T06:11:24;100288.28;;;13.76;84.77
74895;BME280;63447;49.446;8.666;2022-10-22T06:13:54;100294.63;;;13.76;84.96
74895;BME280;63447;49.446;8.666;2022-10-22T06:16:22;100282.69;;;13.60;84.97
74895;BME280;63447;49.446;8.666;2022-10-22T06:18:50;100298.00;;;13.70;84.26
74895;BME280;63447;49.446;8.666;2022-10-22T06:21:17;100319.94;;;13.90;83.98
74895;BME280;63447;49.446;8.666;2022-10-22T06:23:47;100306.59;;;13.80;84.13
74895;BME280;63447;49.446;8.666;2022-10-22T06:26:15;100322.41;;;13.80;83.97
74895;BME280;63447;49.446;8.666;2022-10-22T06:28:45;100323.44;;;13.87;83.77
74895;BME280;63447;49.446;8.666;2022-10-22T06:31:12;100326.19;;;13.87;84.19
74895;BME280;63447;49.446;8.666;2022-10-22T06:33:40;100331.41;;;13.89;83.68
74895;BME280;63447;49.446;8.666;2022-10-22T06:36:18;100343.28;;;13.89;84.10
74895;BME280;63447;49.446;8.666;2022-10-22T06:38:44;100347.06;;;13.97;83.31
74895;BME280;63447;49.446;8.666;2022-10-22T06:41:14;100338.84;;;14.01;82.60
74895;BME280;63447;49.446;8.666;2022-10-22T06:43:41;100357.47;;;14.16;82.64
74895;BME280;63447;49.446;8.666;2022-10-22T06:46:13;100362.22;;;14.15;82.06
74895;BME280;63447;49.446;8.666;2022-10-22T06:48:41;100357.03;;;14.14;82.77
74895;BME280;63447;49.446;8.666;2022-10-22T06:51:13;100367.69;;;14.12;82.49
74895;BME280;63447;49.446;8.666;2022-10-22T06:53:41;100354.34;;;14.02;82.98
74895;BME280;63447;49.446;8.666;2022-10-22T06:56:11;100376.00;;;14.12;82.92
74895;BME280;63447;49.446;8.666;2022-10-22T06:58:37;100382.97;;;14.06;83.40
74895;BME280;63447;49.446;8.666;2022-10-22T07:01:09;100389.47;;;14.25;82.74
74895;BME280;63447;49.446;8.666;2022-10-22T07:03:35;100373.41;;;14.19;82.61
74895;BME280;63447;49.446;8.666;2022-10-22T07:06:03;100378.72;;;14.24;82.58
74895;BME280;63447;49.446;8.666;2022-10-22T07:08:30;100398.84;;;14.37;82.25
74895;BME280;63447;49.446;8.666;2022-10-22T07:11:07;100391.78;;;14.39;82.85
74895;BME280;63447;49.446;8.666;2022-10-22T07:13:35;100393.53;;;14.59;82.05
74895;BME280;63447;49.446;8.666;2022-10-22T07:16:01;100387.63;;;14.45;82.09
74895;BME280;63447;49.446;8.666;2022-10-22T07:18:27;100386.47;;;14.46;82.16
74895;BME280;63447;49.446;8.666;2022-10-22T07:20:54;100398.28;;;14.75;80.98
74895;BME280;63447;49.446;8.666;2022-10-22T07:23:20;100408.56;;;14.90;80.86
74895;BME280;63447;49.446;8.666;2022-10-22T07:25:45;100397.72;;;14.85;80.01
74895;BME280;63447;49.446;8.666;2022-10-22T07:28:10;100401.16;;;15.13;79.76
74895;BME280;63447;49.446;8.666;2022-10-22T07:30:37;100410.75;;;15.32;79.33
74895;BME280;63447;49.446;8.666;2022-10-22T07:33:07;100387.69;;;15.31;77.71
74895;BME280;63447;49.446;8.666;2022-10-22T07:35:36;100392.47;;;15.50;77.39
74895;BME280;63447;49.446;8.666;2022-10-22T07:38:03;100394.97;;;15.55;77.20
74895;BME280;63447;49.446;8.666;2022-10-22T07:40:33;100392.53;;;15.53;76.54
74895;BME280;63447;49.446;8.666;2022-10-22T07:42:59;100406.03;;;15.90;75.52
74895;BME280;63447;49.446;8.666;2022-10-22T07:45:27;100416.34;;;15.89;75.26
74895;BME280;63447;49.446;8.666;2022-10-22T07:47:52;100410.50;;;15.56;76.33
74895;BME280;63447;49.446;8.666;2022-10-22T07:50:18;100431.09;;;15.71;75.93
74895;BME280;63447;49.446;8.666;2022-10-22T07:52:43;100425.28;;;15.60;75.51
74895;BME280;63447;49.446;8.666;2022-10-22T07:55:13;100424.47;;;15.59;76.34
74895;BME280;63447;49.446;8.666;2022-10-22T07:57:41;100437.69;;;15.82;75.90
74895;BME280;63447;49.446;8.666;2022-10-22T08:00:08;100431.22;;;15.97;74.72
74895;BME280;63447;49.446;8.666;2022-10-22T08:02:33;100417.25;;;15.74;75.99
74895;BME280;63447;49.446;8.666;2022-10-22T08:04:59;100419.59;;;15.91;75.17
74895;BME280;63447;49.446;8.666;2022-10-22T08:07:24;100419.44;;;16.04;74.57
74895;BME280;63447;49.446;8.666;2022-10-22T08:09:55;100435.25;;;16.00;74.18
74895;BME280;63447;49.446;8.666;2022-10-22T08:12:22;100430.06;;;15.98;75.52
74895;BME280;63447;49.446;8.666;2022-10-22T08:14:48;100425.88;;;15.88;75.53
74895;BME280;63447;49.446;8.666;2022-10-22T08:17:13;100434.75;;;15.94;75.15
74895;BME280;63447;49.446;8.666;2022-10-22T08:19:38;100424.94;;;16.00;74.65
74895;BME280;63447;49.446;8.666;2022-10-22T08:22:04;100423.22;;;16.15;73.94
74895;BME280;63447;49.446;8.666;2022-10-22T08:24:34;100423.75;;;16.43;72.46
74895;BME280;63447;49.446;8.666;2022-10-22T08:27:04;100426.94;;;16.65;71.21
74895;BME280;63447;49.446;8.666;2022-10-22T08:29:29;100422.84;;;16.58;71.96
74895;BME280;63447;49.446;8.666;2022-10-22T08:31:54;100434.94;;;16.66;71.15
74895;BME280;63447;49.446;8.666;2022-10-22T08:34:22;100433.38;;;16.91;71.38
74895;BME280;63447;49.446;8.666;2022-10-22T08:36:49;100444.28;;;17.00;71.15
74895;BME280;63447;49.446;8.666;2022-10-22T08:39:17;100444.53;;;16.91;71.53
74895;BME280;63447;49.446;8.666;2022-10-22T08:41:54;100445.03;;;16.74;72.14
74895;BME280;63447;49.446;8.666;2022-10-22T08:49:39;100463.66;;;16.70;nan
74895;BME280;63447;49.446;8.666;2022-10-22T08:52:11;100471.03;;;17.05;71.12
74895;BME280;63447;49.446;8.666;2022-10-22T08:54:58;100477.16;;;16.68;71.56
74895;BME280;63447;49.446;8.666;2022-10-22T09:00:42;100483.94;;;17.16;70.50
74895;BME280;63447;49.446;8.666;2022-10-22T09:06:13;100490.09;;;17.25;69.68
74895;BME280;63447;49.446;8.666;2022-10-22T09:08:42;100492.28;;;16.90;71.12
74895;BME280;63447;49.446;8.666;2022-10-22T09:13:39;100484.75;;;17.40;68.96
74895;BME280;63447;49.446;8.666;2022-10-22T09:16:18;100499.41;;;17.10;69.09
74895;BME280;63447;49.446;8.666;2022-10-22T09:24:13;100499.44;;;17.63;68.27
74895;BME280;63447;49.446;8.666;2022-10-22T09:26:43;100489.88;;;18.24;67.66
74895;BME280;63447;49.446;8.666;2022-10-22T09:29:16;100484.56;;;18.12;66.67
74895;BME280;63447;49.446;8.666;2022-10-22T09:31:46;100481.63;;;18.35;66.18
74895;BME280;63447;49.446;8.666;2022-10-22T09:34:14;100478.81;;;18.31;64.87
74895;BME280;63447;49.446;8.666;2022-10-22T09:36:40;100494.91;;;18.41;65.12
74895;BME280;63447;49.446;8.666;2022-10-22T09:39:21;100498.72;;;18.59;64.63
74895;BME280;63447;49.446;8.666;2022-10-22T09:41:47;100497.66;;;18.75;64.22
74895;BME280;63447;49.446;8.666;2022-10-22T09:44:17;100487.66;;;18.70;64.04
74895;BME280;63447;49.446;8.666;2022-10-22T09:46:43;100490.91;;;18.79;64.52
74895;BME280;63447;49.446;8.666;2022-10-22T09:49:12;100483.44;;;18.53;64.53
74895;BME280;63447;49.446;8.666;2022-10-22T09:51:58;100490.81;;;18.69;64.91
74895;BME280;63447;49.446;8.666;2022-10-22T09:54:38;100495.28;;;19.24;63.22
74895;BME280;63447;49.446;8.666;2022-10-22T09:57:13;100500.66;;;19.44;61.58
74895;BME280;63447;49.446;8.666;2022-10-22T09:59:42;100502.75;;;19.54;60.42
74895;BME280;63447;49.446;8.666;2022-10-22T10:04:40;100505.16;;;19.55;61.31
74895;BME280;63447;49.446;8.666;2022-10-22T10:07:15;100496.72;;;20.21;59.96
74895;BME280;63447;49.446;8.666;2022-10-22T10:09:44;100494.91;;;20.85;58.03
74895;BME280;63447;49.446;8.666;2022-10-22T10:17:55;100497.25;;;20.48;57.97
74895;BME280;63447;49.446;8.666;2022-10-22T10:20:34;100500.94;;;21.33;55.73
74895;BME280;63447;49.446;8.666;2022-10-22T10:23:26;100509.34;;;21.65;54.76
74895;BME280;63447;49.446;8.666;2022-10-22T10:26:08;100497.25;;;22.00;54.09
74895;BME280;63447;49.446;8.666;2022-10-22T10:37:26;100481.16;;;23.33;50.22
74895;BME280;63447;49.446;8.666;2022-10-22T10:42:50;100498.78;;;22.12;52.22
74895;BME280;63447;49.446;8.666;2022-10-22T10:45:29;100497.16;;;22.25;51.33
74895;BME280;63447;49.446;8.666;2022-10-22T10:48:12;100490.22;;;23.92;47.91
74895;BME280;63447;49.446;8.666;2022-10-22T10:56:46;100491.47;;;24.22;44.71
74895;BME280;63447;49.446;8.666;2022-10-22T11:05:16;100500.13;;;25.92;42.23
74895;BME280;63447;49.446;8.666;2022-10-22T11:07:54;100480.06;;;26.79;39.62
74895;BME280;63447;49.446;8.666;2022-10-22T11:10:24;100486.28;;;26.18;40.68
74895;BME280;63447;49.446;8.666;2022-10-22T11:12:56;100474.72;;;25.69;40.31
74895;BME280;63447;49.446;8.666;2022-10-22T11:15:33;100471.59;;;25.40;42.04
74895;BME280;63447;49.446;8.666;2022-10-22T11:18:36;100478.38;;;25.89;41.70
74895;BME280;63447;49.446;8.666;2022-10-22T11:21:21;100477.28;;;25.60;42.03
74895;BME280;63447;49.446;8.666;2022-10-22T11:24:07;100473.09;;;23.39;46.31
74895;BME280;63447;49.446;8.666;2022-10-22T11:26:51;100477.38;;;23.50;46.80
74895;BME280;63447;49.446;8.666;2022-10-22T11:29:23;100478.66;;;22.94;48.31
74895;BME280;63447;49.446;8.666;2022-10-22T11:31:50;100476.13;;;23.92;45.76
74895;BME280;63447;49.446;8.666;2022-10-22T11:36:48;100499.06;;;22.39;49.71
74895;BME280;63447;49.446;8.666;2022-10-22T11:42:05;100497.56;;;22.17;51.81
74895;BME280;63447;49.446;8.666;2022-10-22T11:44:44;100488.09;;;21.18;53.45
74895;BME280;63447;49.446;8.666;2022-10-22T11:47:24;100483.91;;;22.19;50.36
74895;BME280;63447;49.446;8.666;2022-10-22T11:49:56;100482.91;;;24.90;43.59
74895;BME280;63447;49.446;8.666;2022-10-22T11:54:57;100463.13;;;23.68;45.64
74895;BME280;63447;49.446;8.666;2022-10-22T11:57:28;100471.66;;;25.36;42.62
74895;BME280;63447;49.446;8.666;2022-10-22T12:00:00;100470.13;;;25.32;42.62
74895;BME280;63447;49.446;8.666;2022-10-22T12:02:33;100473.66;;;25.59;41.54
74895;BME280;63447;49.446;8.666;2022-10-22T12:07:52;100461.97;;;24.60;43.64
74895;BME280;63447;49.446;8.666;2022-10-22T12:10:20;100445.44;;;23.26;47.27
74895;BME280;63447;49.446;8.666;2022-10-22T12:13:10;100458.91;;;22.42;49.34
74895;BME280;63447;49.446;8.666;2022-10-22T12:15:46;100471.28;;;21.40;51.75
74895;BME280;63447;49.446;8.666;2022-10-22T12:18:15;100466.84;;;21.49;50.94
74895;BME280;63447;49.446;8.666;2022-10-22T12:20:40;100467.25;;;21.19;52.48
74895;BME280;63447;49.446;8.666;2022-10-22T12:23:10;100458.84;;;21.16;53.13
74895;BME280;63447;49.446;8.666;2022-10-22T12:25:36;100469.66;;;20.92;53.59
74895;BME280;63447;49.446;8.666;2022-10-22T12:28:03;100465.25;;;21.45;52.99
74895;BME280;63447;49.446;8.666;2022-10-22T12:30:32;100453.56;;;21.71;52.59
74895;BME280;63447;49.446;8.666;2022-10-22T12:33:04;100448.84;;;21.25;52.75
74895;BME280;63447;49.446;8.666;2022-10-22T12:35:40;100455.66;;;21.24;53.36
74895;BME280;63447;49.446;8.666;2022-10-22T12:38:21;100443.22;;;21.04;54.90
74895;BME280;63447;49.446;8.666;2022-10-22T12:40:50;100449.63;;;20.73;55.97
74895;BME280;63447;49.446;8.666;2022-10-22T12:43:24;100437.59;;;20.69;55.22
74895;BME280;63447;49.446;8.666;2022-10-22T12:45:52;100448.81;;;20.90;54.58
74895;BME280;63447;49.446;8.666;2022-10-22T12:48:32;100452.44;;;21.01;54.11
74895;BME280;63447;49.446;8.666;2022-10-22T12:51:03;100444.41;;;21.35;52.98
74895;BME280;63447;49.446;8.666;2022-10-22T12:53:38;100453.09;;;21.83;52.28
74895;BME280;63447;49.446;8.666;2022-10-22T12:56:12;100431.53;;;22.50;50.12
74895;BME280;63447;49.446;8.666;2022-10-22T12:58:42;100457.63;;;21.42;53.17
74895;BME280;63447;49.446;8.666;2022-10-22T13:01:12;100448.03;;;21.36;51.76
74895;BME280;63447;49.446;8.666;2022-10-22T13:03:49;100461.66;;;20.77;53.59
74895;BME280;63447;49.446;8.666;2022-10-22T13:11:21;100446.41;;;20.63;53.90
74895;BME280;63447;49.446;8.666;2022-10-22T13:13:49;100440.72;;;20.35;54.39
74895;BME280;63447;49.446;8.666;2022-10-22T13:16:22;100451.19;;;20.59;54.14
74895;BME280;63447;49.446;8.666;2022-10-22T13:18:52;100460.03;;;20.69;53.38
74895;BME280;63447;49.446;8.666;2022-10-22T13:24:00;100454.81;;;21.06;52.19
74895;BME280;63447;49.446;8.666;2022-10-22T13:26:34;100462.41;;;21.62;51.48
74895;BME280;63447;49.446;8.666;2022-10-22T13:29:00;100456.84;;;21.20;52.53
74895;BME280;63447;49.446;8.666;2022-10-22T13:31:29;100455.66;;;20.99;52.87
74895;BME280;63447;49.446;8.666;2022-10-22T13:34:05;100446.03;;;21.00;52.83
74895;BME280;63447;49.446;8.666;2022-10-22T13:36:34;100435.59;;;20.87;53.07
74895;BME280;63447;49.446;8.666;2022-10-22T13:39:03;100456.69;;;20.31;55.19
74895;BME280;63447;49.446;8.666;2022-10-22T13:41:30;100436.53;;;19.83;56.63
74895;BME280;63447;49.446;8.666;2022-10-22T13:44:00;100445.38;;;19.92;56.52
74895;BME280;63447;49.446;8.666;2022-10-22T13:46:26;100443.78;;;19.94;57.26
74895;BME280;63447;49.446;8.666;2022-10-22T13:48:55;100436.56;;;19.90;57.54
74895;BME280;63447;49.446;8.666;2022-10-22T13:51:23;100439.31;;;19.79;58.25
74895;BME280;63447;49.446;8.666;2022-10-22T13:53:53;100442.19;;;19.97;57.98
74895;BME280;63447;49.446;8.666;2022-10-22T13:56:20;100441.41;;;19.96;58.10
74895;BME280;63447;49.446;8.666;2022-10-22T13:58:46;100439.72;;;19.81;58.37
74895;BME280;63447;49.446;8.666;2022-10-22T14:01:26;100444.00;;;19.61;58.36
74895;BME280;63447;49.446;8.666;2022-10-22T14:03:58;100449.31;;;19.80;59.17
74895;BME280;63447;49.446;8.666;2022-10-22T14:06:29;100430.06;;;19.75;59.15
74895;BME280;63447;49.446;8.666;2022-10-22T14:08:59;100438.91;;;19.81;58.98
74895;BME280;63447;49.446;8.666;2022-10-22T14:11:25;100440.47;;;19.71;58.87
74895;BME280;63447;49.446;8.666;2022-10-22T14:13:55;100444.59;;;19.95;58.16
74895;BME280;63447;49.446;8.666;2022-10-22T14:16:26;100437.28;;;19.73;58.90
74895;BME280;63447;49.446;8.666;2022-10-22T14:18:54;100446.84;;;19.68;58.79
74895;BME280;63447;49.446;8.666;2022-10-22T14:21:22;100434.00;;;19.60;58.95
74895;BME280;63447;49.446;8.666;2022-10-22T14:23:53;100430.78;;;19.54;58.49
74895;BME280;63447;49.446;8.666;2022-10-22T14:26:23;100433.66;;;19.69;58.65
74895;BME280;63447;49.446;8.666;2022-10-22T14:28:49;100438.81;;;19.63;59.53
74895;BME280;63447;49.446;8.666;2022-10-22T14:31:15;100446.13;;;19.82;59.28
74895;BME280;63447;49.446;8.666;2022-10-22T14:33:43;100432.06;;;19.68;58.99
74895;BME280;63447;49.446;8.666;2022-10-22T14:36:14;100437.69;;;19.71;59.09
74895;BME280;63447;49.446;8.666;2022-10-22T14:38:43;100432.78;;;19.54;59.24
74895;BME280;63447;49.446;8.666;2022-10-22T14:43:43;100445.28;;;19.78;59.95
74895;BME280;63447;49.446;8.666;2022-10-22T14:46:13;100418.03;;;19.64;59.68
74895;BME280;63447;49.446;8.666;2022-10-22T14:48:39;100456.50;;;19.81;60.18
74895;BME280;63447;49.446;8.666;2022-10-22T14:51:15;100446.19;;;19.92;60.17
74895;BME280;63447;49.446;8.666;2022-10-22T14:53:42;100428.75;;;20.38;58.85